UNEE/KEJ METAR and TAF weather

Enter ICAO airport designator
Station Type Date Time Source
UNEE METAR 2022/11/30 16:30 UTC NOAA

UNEE 301630Z 29002MPS 6000 SCT006 M20/M24 Q1041 R23/420255 NOSIG RMK QFE757


Station Type Date Time Source
UNEE Decoded METAR 2022/11/30 16:30 UTC NOAA

Kemerovo, Russia (UNEE) 55-19-48N 086-04-48E
Nov 30, 2022 - 11:30 AM EST / 2022.11.30 1630 UTC
Wind: from the WNW (290 degrees) at 4 MPH (4 KT):0
Visibility: 3 mile(s):0
Sky conditions: partly cloudy
Temperature: -4 F (-20 C)
Dew Point: -11 F (-24 C)
Relative Humidity: 70%
Pressure (altimeter): 30.74 in. Hg (1041 hPa)
ob: UNEE 301630Z 29002MPS 6000 SCT006 M20/M24 Q1041 R23/420255 NOSIG RMK QFE757
cycle: 16

Station Type Date Time Source
UNEE TAF 2022/11/30 15:24 UTC NOAA

TAF UNEE 301400Z 3015/0115 34003G08MPS 6000 SCT040
TEMPO 3015/3018 1500 BR FU SCT005
TEMPO 3018/0104 0300 FZFG SCT002

Example: see airport list